sensor_id;sensor_type;location;lat;lon;timestamp;P1;durP1;ratioP1;P2;durP2;ratioP2
56183;SDS011;42086;53.170;6.980;2022-08-14T00:02:03;9.68;;;8.68;;
56183;SDS011;42086;53.170;6.980;2022-08-14T00:04:30;9.98;;;8.18;;
56183;SDS011;42086;53.170;6.980;2022-08-14T00:06:57;9.90;;;8.15;;
56183;SDS011;42086;53.170;6.980;2022-08-14T00:09:23;10.70;;;8.73;;
56183;SDS011;42086;53.170;6.980;2022-08-14T00:11:49;11.30;;;8.60;;
56183;SDS011;42086;53.170;6.980;2022-08-14T00:14:16;10.60;;;9.10;;
56183;SDS011;42086;53.170;6.980;2022-08-14T00:16:42;10.05;;;9.00;;
56183;SDS011;42086;53.170;6.980;2022-08-14T00:19:09;10.88;;;9.65;;
56183;SDS011;42086;53.170;6.980;2022-08-14T00:21:36;10.68;;;8.88;;
56183;SDS011;42086;53.170;6.980;2022-08-14T00:24:02;10.13;;;9.10;;
56183;SDS011;42086;53.170;6.980;2022-08-14T00:26:28;10.98;;;9.77;;
56183;SDS011;42086;53.170;6.980;2022-08-14T00:28:54;10.50;;;9.35;;
56183;SDS011;42086;53.170;6.980;2022-08-14T00:31:21;12.88;;;9.73;;
56183;SDS011;42086;53.170;6.980;2022-08-14T00:33:47;12.68;;;10.20;;
56183;SDS011;42086;53.170;6.980;2022-08-14T00:36:13;12.55;;;9.20;;
56183;SDS011;42086;53.170;6.980;2022-08-14T00:38:39;10.30;;;9.18;;
56183;SDS011;42086;53.170;6.980;2022-08-14T00:41:06;11.20;;;9.98;;
56183;SDS011;42086;53.170;6.980;2022-08-14T00:43:33;11.73;;;9.45;;
56183;SDS011;42086;53.170;6.980;2022-08-14T00:46:02;11.05;;;9.48;;
56183;SDS011;42086;53.170;6.980;2022-08-14T00:48:30;12.50;;;9.82;;
56183;SDS011;42086;53.170;6.980;2022-08-14T00:50:56;11.48;;;9.43;;
56183;SDS011;42086;53.170;6.980;2022-08-14T00:53:22;11.93;;;9.65;;
56183;SDS011;42086;53.170;6.980;2022-08-14T00:55:50;10.90;;;9.77;;
56183;SDS011;42086;53.170;6.980;2022-08-14T00:58:19;11.60;;;10.27;;
56183;SDS011;42086;53.170;6.980;2022-08-14T01:00:54;10.68;;;9.57;;
56183;SDS011;42086;53.170;6.980;2022-08-14T01:03:35;13.57;;;10.73;;
56183;SDS011;42086;53.170;6.980;2022-08-14T01:06:07;12.00;;;9.45;;
56183;SDS011;42086;53.170;6.980;2022-08-14T01:08:36;11.50;;;9.73;;
56183;SDS011;42086;53.170;6.980;2022-08-14T01:11:03;12.07;;;10.10;;
56183;SDS011;42086;53.170;6.980;2022-08-14T01:13:34;11.15;;;9.70;;
56183;SDS011;42086;53.170;6.980;2022-08-14T01:16:05;15.13;;;10.32;;
56183;SDS011;42086;53.170;6.980;2022-08-14T01:18:33;10.40;;;9.40;;
56183;SDS011;42086;53.170;6.980;2022-08-14T01:21:51;11.98;;;9.77;;
56183;SDS011;42086;53.170;6.980;2022-08-14T01:24:11;11.32;;;10.15;;
56183;SDS011;42086;53.170;6.980;2022-08-14T01:26:40;11.07;;;9.95;;
56183;SDS011;42086;53.170;6.980;2022-08-14T01:29:07;12.70;;;10.48;;
56183;SDS011;42086;53.170;6.980;2022-08-14T01:31:35;12.57;;;10.43;;
56183;SDS011;42086;53.170;6.980;2022-08-14T01:34:23;11.43;;;9.20;;
56183;SDS011;42086;53.170;6.980;2022-08-14T01:36:50;12.20;;;10.13;;
56183;SDS011;42086;53.170;6.980;2022-08-14T01:39:18;12.38;;;10.68;;
56183;SDS011;42086;53.170;6.980;2022-08-14T01:41:45;11.13;;;9.55;;
56183;SDS011;42086;53.170;6.980;2022-08-14T01:44:17;10.40;;;9.40;;
56183;SDS011;42086;53.170;6.980;2022-08-14T01:46:43;11.40;;;10.02;;
56183;SDS011;42086;53.170;6.980;2022-08-14T01:49:11;11.93;;;10.10;;
56183;SDS011;42086;53.170;6.980;2022-08-14T01:51:39;11.77;;;10.10;;
56183;SDS011;42086;53.170;6.980;2022-08-14T01:54:13;11.68;;;10.45;;
56183;SDS011;42086;53.170;6.980;2022-08-14T01:56:46;12.18;;;10.80;;
56183;SDS011;42086;53.170;6.980;2022-08-14T01:59:26;11.52;;;10.32;;
56183;SDS011;42086;53.170;6.980;2022-08-14T02:01:58;11.75;;;10.52;;
56183;SDS011;42086;53.170;6.980;2022-08-14T02:04:29;12.65;;;10.75;;
56183;SDS011;42086;53.170;6.980;2022-08-14T02:06:58;14.10;;;10.75;;
56183;SDS011;42086;53.170;6.980;2022-08-14T02:09:26;13.90;;;10.70;;
56183;SDS011;42086;53.170;6.980;2022-08-14T02:11:55;12.65;;;11.13;;
56183;SDS011;42086;53.170;6.980;2022-08-14T02:14:21;12.30;;;11.00;;
56183;SDS011;42086;53.170;6.980;2022-08-14T02:16:49;13.40;;;11.10;;
56183;SDS011;42086;53.170;6.980;2022-08-14T02:19:18;12.45;;;11.07;;
56183;SDS011;42086;53.170;6.980;2022-08-14T02:21:48;13.73;;;11.15;;
56183;SDS011;42086;53.170;6.980;2022-08-14T02:24:16;14.07;;;11.63;;
56183;SDS011;42086;53.170;6.980;2022-08-14T02:26:45;16.02;;;12.10;;
56183;SDS011;42086;53.170;6.980;2022-08-14T02:29:15;13.77;;;11.95;;
56183;SDS011;42086;53.170;6.980;2022-08-14T02:31:45;14.55;;;11.85;;
56183;SDS011;42086;53.170;6.980;2022-08-14T02:34:17;12.55;;;11.25;;
56183;SDS011;42086;53.170;6.980;2022-08-14T02:36:45;13.93;;;12.52;;
56183;SDS011;42086;53.170;6.980;2022-08-14T02:39:13;12.65;;;11.38;;
56183;SDS011;42086;53.170;6.980;2022-08-14T02:41:39;12.75;;;11.45;;
56183;SDS011;42086;53.170;6.980;2022-08-14T02:44:07;14.20;;;11.77;;
56183;SDS011;42086;53.170;6.980;2022-08-14T02:46:38;14.73;;;11.57;;
56183;SDS011;42086;53.170;6.980;2022-08-14T02:49:09;13.07;;;11.70;;
56183;SDS011;42086;53.170;6.980;2022-08-14T02:51:35;12.85;;;11.55;;
56183;SDS011;42086;53.170;6.980;2022-08-14T02:54:03;15.02;;;11.77;;
56183;SDS011;42086;53.170;6.980;2022-08-14T02:56:31;14.45;;;11.80;;
56183;SDS011;42086;53.170;6.980;2022-08-14T02:58:57;14.77;;;11.52;;
56183;SDS011;42086;53.170;6.980;2022-08-14T03:01:26;14.30;;;11.10;;
56183;SDS011;42086;53.170;6.980;2022-08-14T03:03:52;13.90;;;11.32;;
56183;SDS011;42086;53.170;6.980;2022-08-14T03:06:20;15.90;;;12.52;;
56183;SDS011;42086;53.170;6.980;2022-08-14T03:08:48;11.85;;;10.65;;
56183;SDS011;42086;53.170;6.980;2022-08-14T03:11:14;14.95;;;11.88;;
56183;SDS011;42086;53.170;6.980;2022-08-14T03:13:42;13.30;;;11.48;;
56183;SDS011;42086;53.170;6.980;2022-08-14T03:16:11;14.27;;;11.90;;
56183;SDS011;42086;53.170;6.980;2022-08-14T03:18:41;19.10;;;11.55;;
56183;SDS011;42086;53.170;6.980;2022-08-14T03:21:12;15.05;;;11.15;;
56183;SDS011;42086;53.170;6.980;2022-08-14T03:23:40;14.77;;;11.77;;
56183;SDS011;42086;53.170;6.980;2022-08-14T03:26:09;12.57;;;11.25;;
56183;SDS011;42086;53.170;6.980;2022-08-14T03:28:37;14.15;;;12.50;;
56183;SDS011;42086;53.170;6.980;2022-08-14T03:31:05;16.75;;;12.60;;
56183;SDS011;42086;53.170;6.980;2022-08-14T03:33:33;13.98;;;12.57;;
56183;SDS011;42086;53.170;6.980;2022-08-14T03:36:09;16.33;;;12.98;;
56183;SDS011;42086;53.170;6.980;2022-08-14T03:38:39;17.25;;;13.05;;
56183;SDS011;42086;53.170;6.980;2022-08-14T03:41:10;14.68;;;13.07;;
56183;SDS011;42086;53.170;6.980;2022-08-14T03:43:48;18.25;;;13.00;;
56183;SDS011;42086;53.170;6.980;2022-08-14T03:46:16;14.68;;;12.90;;
56183;SDS011;42086;53.170;6.980;2022-08-14T03:48:43;16.30;;;13.18;;
56183;SDS011;42086;53.170;6.980;2022-08-14T03:51:10;14.73;;;12.63;;
56183;SDS011;42086;53.170;6.980;2022-08-14T03:53:38;14.00;;;12.50;;
56183;SDS011;42086;53.170;6.980;2022-08-14T03:56:07;14.63;;;13.13;;
56183;SDS011;42086;53.170;6.980;2022-08-14T03:58:45;14.80;;;13.05;;
56183;SDS011;42086;53.170;6.980;2022-08-14T04:01:13;14.30;;;12.80;;
56183;SDS011;42086;53.170;6.980;2022-08-14T04:03:41;16.40;;;12.77;;
56183;SDS011;42086;53.170;6.980;2022-08-14T04:06:07;13.63;;;12.20;;
56183;SDS011;42086;53.170;6.980;2022-08-14T04:08:35;16.58;;;12.55;;
56183;SDS011;42086;53.170;6.980;2022-08-14T04:11:05;14.02;;;12.13;;
56183;SDS011;42086;53.170;6.980;2022-08-14T04:13:34;15.77;;;12.35;;
56183;SDS011;42086;53.170;6.980;2022-08-14T04:16:05;14.13;;;12.30;;
56183;SDS011;42086;53.170;6.980;2022-08-14T04:18:36;16.45;;;12.85;;
56183;SDS011;42086;53.170;6.980;2022-08-14T04:21:04;14.73;;;12.82;;
56183;SDS011;42086;53.170;6.980;2022-08-14T04:23:30;15.63;;;12.85;;
56183;SDS011;42086;53.170;6.980;2022-08-14T04:25:57;14.32;;;12.55;;
56183;SDS011;42086;53.170;6.980;2022-08-14T04:28:24;14.88;;;13.27;;
56183;SDS011;42086;53.170;6.980;2022-08-14T04:30:50;13.65;;;12.25;;
56183;SDS011;42086;53.170;6.980;2022-08-14T04:33:16;13.85;;;12.38;;
56183;SDS011;42086;53.170;6.980;2022-08-14T04:35:42;13.38;;;11.98;;
56183;SDS011;42086;53.170;6.980;2022-08-14T04:38:09;14.93;;;12.50;;
56183;SDS011;42086;53.170;6.980;2022-08-14T04:40:54;15.32;;;13.52;;
56183;SDS011;42086;53.170;6.980;2022-08-14T04:43:40;15.30;;;13.20;;
56183;SDS011;42086;53.170;6.980;2022-08-14T04:46:07;13.75;;;12.05;;
56183;SDS011;42086;53.170;6.980;2022-08-14T04:48:35;15.60;;;13.07;;
56183;SDS011;42086;53.170;6.980;2022-08-14T04:51:06;15.38;;;13.15;;
56183;SDS011;42086;53.170;6.980;2022-08-14T04:53:34;14.98;;;13.45;;
56183;SDS011;42086;53.170;6.980;2022-08-14T04:56:03;14.68;;;13.18;;
56183;SDS011;42086;53.170;6.980;2022-08-14T04:58:30;16.63;;;13.52;;
56183;SDS011;42086;53.170;6.980;2022-08-14T05:00:57;16.33;;;13.43;;
56183;SDS011;42086;53.170;6.980;2022-08-14T05:03:29;17.38;;;13.50;;
56183;SDS011;42086;53.170;6.980;2022-08-14T05:05:57;14.70;;;13.18;;
56183;SDS011;42086;53.170;6.980;2022-08-14T05:08:26;16.80;;;13.85;;
56183;SDS011;42086;53.170;6.980;2022-08-14T05:10:54;17.30;;;14.02;;
56183;SDS011;42086;53.170;6.980;2022-08-14T05:13:22;16.73;;;13.95;;
56183;SDS011;42086;53.170;6.980;2022-08-14T05:15:50;15.40;;;13.35;;
56183;SDS011;42086;53.170;6.980;2022-08-14T05:18:19;15.65;;;13.07;;
56183;SDS011;42086;53.170;6.980;2022-08-14T05:20:50;17.75;;;13.18;;
56183;SDS011;42086;53.170;6.980;2022-08-14T05:23:19;14.98;;;12.73;;
56183;SDS011;42086;53.170;6.980;2022-08-14T05:25:47;15.38;;;12.45;;
56183;SDS011;42086;53.170;6.980;2022-08-14T05:28:16;13.70;;;12.25;;
56183;SDS011;42086;53.170;6.980;2022-08-14T05:30:45;15.48;;;13.27;;
56183;SDS011;42086;53.170;6.980;2022-08-14T05:33:13;18.17;;;12.15;;
56183;SDS011;42086;53.170;6.980;2022-08-14T05:35:41;15.43;;;12.30;;
56183;SDS011;42086;53.170;6.980;2022-08-14T05:38:09;17.08;;;12.32;;
56183;SDS011;42086;53.170;6.980;2022-08-14T05:40:41;14.90;;;12.27;;
56183;SDS011;42086;53.170;6.980;2022-08-14T05:43:08;17.70;;;13.93;;
56183;SDS011;42086;53.170;6.980;2022-08-14T05:45:34;16.40;;;13.00;;
56183;SDS011;42086;53.170;6.980;2022-08-14T05:48:01;21.02;;;13.93;;
56183;SDS011;42086;53.170;6.980;2022-08-14T05:50:28;19.35;;;14.35;;
56183;SDS011;42086;53.170;6.980;2022-08-14T05:52:54;18.92;;;14.60;;
56183;SDS011;42086;53.170;6.980;2022-08-14T05:55:21;18.88;;;14.70;;
56183;SDS011;42086;53.170;6.980;2022-08-14T05:58:01;19.88;;;14.43;;
56183;SDS011;42086;53.170;6.980;2022-08-14T06:00:36;20.30;;;14.77;;
56183;SDS011;42086;53.170;6.980;2022-08-14T06:03:04;22.35;;;16.45;;
56183;SDS011;42086;53.170;6.980;2022-08-14T06:05:31;20.85;;;15.60;;
56183;SDS011;42086;53.170;6.980;2022-08-14T06:07:58;22.17;;;16.67;;
56183;SDS011;42086;53.170;6.980;2022-08-14T06:10:28;21.67;;;15.27;;
56183;SDS011;42086;53.170;6.980;2022-08-14T06:12:55;19.80;;;15.23;;
56183;SDS011;42086;53.170;6.980;2022-08-14T06:15:22;19.17;;;14.50;;
56183;SDS011;42086;53.170;6.980;2022-08-14T06:17:51;19.73;;;14.77;;
56183;SDS011;42086;53.170;6.980;2022-08-14T06:20:18;15.10;;;13.20;;
56183;SDS011;42086;53.170;6.980;2022-08-14T06:22:45;15.43;;;13.02;;
56183;SDS011;42086;53.170;6.980;2022-08-14T06:25:12;14.88;;;12.75;;
56183;SDS011;42086;53.170;6.980;2022-08-14T06:27:40;16.40;;;13.00;;
56183;SDS011;42086;53.170;6.980;2022-08-14T06:30:09;13.73;;;12.13;;
56183;SDS011;42086;53.170;6.980;2022-08-14T06:32:36;15.02;;;11.93;;
56183;SDS011;42086;53.170;6.980;2022-08-14T06:35:03;13.75;;;12.25;;
56183;SDS011;42086;53.170;6.980;2022-08-14T06:37:37;13.70;;;11.32;;
56183;SDS011;42086;53.170;6.980;2022-08-14T06:40:08;14.13;;;11.35;;
56183;SDS011;42086;53.170;6.980;2022-08-14T06:42:35;12.75;;;11.00;;
56183;SDS011;42086;53.170;6.980;2022-08-14T06:45:01;14.02;;;10.75;;
56183;SDS011;42086;53.170;6.980;2022-08-14T06:47:27;12.38;;;11.18;;
56183;SDS011;42086;53.170;6.980;2022-08-14T06:49:53;13.48;;;10.73;;
56183;SDS011;42086;53.170;6.980;2022-08-14T06:52:19;12.65;;;11.35;;
56183;SDS011;42086;53.170;6.980;2022-08-14T06:54:46;14.30;;;11.10;;
56183;SDS011;42086;53.170;6.980;2022-08-14T06:57:12;11.85;;;10.60;;
56183;SDS011;42086;53.170;6.980;2022-08-14T06:59:37;15.73;;;11.68;;
56183;SDS011;42086;53.170;6.980;2022-08-14T07:02:03;15.05;;;11.15;;
56183;SDS011;42086;53.170;6.980;2022-08-14T07:04:48;13.55;;;10.70;;
56183;SDS011;42086;53.170;6.980;2022-08-14T07:07:36;12.27;;;10.95;;
56183;SDS011;42086;53.170;6.980;2022-08-14T07:10:02;11.85;;;10.52;;
56183;SDS011;42086;53.170;6.980;2022-08-14T07:12:30;11.50;;;9.45;;
56183;SDS011;42086;53.170;6.980;2022-08-14T07:14:57;15.52;;;11.23;;
56183;SDS011;42086;53.170;6.980;2022-08-14T07:17:23;10.95;;;9.85;;
56183;SDS011;42086;53.170;6.980;2022-08-14T07:19:49;11.52;;;10.30;;
56183;SDS011;42086;53.170;6.980;2022-08-14T07:22:15;12.05;;;9.77;;
56183;SDS011;42086;53.170;6.980;2022-08-14T07:24:41;11.55;;;10.15;;
56183;SDS011;42086;53.170;6.980;2022-08-14T07:27:07;11.10;;;9.88;;
56183;SDS011;42086;53.170;6.980;2022-08-14T07:29:33;11.13;;;9.85;;
56183;SDS011;42086;53.170;6.980;2022-08-14T07:31:59;10.40;;;9.35;;
56183;SDS011;42086;53.170;6.980;2022-08-14T07:34:25;10.10;;;9.10;;
56183;SDS011;42086;53.170;6.980;2022-08-14T07:36:51;10.35;;;9.18;;
56183;SDS011;42086;53.170;6.980;2022-08-14T07:39:19;10.80;;;8.85;;
56183;SDS011;42086;53.170;6.980;2022-08-14T07:41:45;9.50;;;8.50;;
56183;SDS011;42086;53.170;6.980;2022-08-14T07:44:11;12.18;;;9.15;;
56183;SDS011;42086;53.170;6.980;2022-08-14T07:46:38;11.00;;;8.73;;
56183;SDS011;42086;53.170;6.980;2022-08-14T07:49:05;10.10;;;9.07;;
56183;SDS011;42086;53.170;6.980;2022-08-14T07:51:33;10.95;;;9.15;;
56183;SDS011;42086;53.170;6.980;2022-08-14T07:53:59;12.30;;;9.10;;
56183;SDS011;42086;53.170;6.980;2022-08-14T07:56:26;11.65;;;8.98;;
56183;SDS011;42086;53.170;6.980;2022-08-14T07:58:52;10.60;;;8.60;;
56183;SDS011;42086;53.170;6.980;2022-08-14T08:01:19;10.48;;;9.23;;
56183;SDS011;42086;53.170;6.980;2022-08-14T08:03:45;9.43;;;8.52;;
56183;SDS011;42086;53.170;6.980;2022-08-14T08:06:13;9.95;;;8.90;;
56183;SDS011;42086;53.170;6.980;2022-08-14T08:08:41;9.30;;;8.50;;
56183;SDS011;42086;53.170;6.980;2022-08-14T08:11:09;10.07;;;8.60;;
56183;SDS011;42086;53.170;6.980;2022-08-14T08:13:36;10.48;;;8.35;;
56183;SDS011;42086;53.170;6.980;2022-08-14T08:16:07;8.75;;;7.95;;
56183;SDS011;42086;53.170;6.980;2022-08-14T08:18:34;8.43;;;7.63;;
56183;SDS011;42086;53.170;6.980;2022-08-14T08:21:00;9.63;;;8.73;;
56183;SDS011;42086;53.170;6.980;2022-08-14T08:23:27;8.60;;;7.75;;
56183;SDS011;42086;53.170;6.980;2022-08-14T08:25:57;9.10;;;8.20;;
56183;SDS011;42086;53.170;6.980;2022-08-14T08:28:24;9.02;;;8.05;;
56183;SDS011;42086;53.170;6.980;2022-08-14T08:31:00;9.07;;;7.93;;
56183;SDS011;42086;53.170;6.980;2022-08-14T08:33:29;9.07;;;8.20;;
56183;SDS011;42086;53.170;6.980;2022-08-14T08:35:57;8.77;;;7.88;;
56183;SDS011;42086;53.170;6.980;2022-08-14T08:38:25;8.90;;;8.02;;
56183;SDS011;42086;53.170;6.980;2022-08-14T08:40:56;11.93;;;8.45;;
56183;SDS011;42086;53.170;6.980;2022-08-14T08:45:55;9.25;;;8.35;;
56183;SDS011;42086;53.170;6.980;2022-08-14T08:48:24;8.77;;;7.88;;
56183;SDS011;42086;53.170;6.980;2022-08-14T08:53:32;10.48;;;9.10;;
56183;SDS011;42086;53.170;6.980;2022-08-14T08:55:59;8.98;;;8.05;;
56183;SDS011;42086;53.170;6.980;2022-08-14T08:58:26;9.73;;;8.50;;
56183;SDS011;42086;53.170;6.980;2022-08-14T09:00:53;9.57;;;8.65;;
56183;SDS011;42086;53.170;6.980;2022-08-14T09:03:24;11.30;;;9.00;;
56183;SDS011;42086;53.170;6.980;2022-08-14T09:08:27;10.10;;;9.07;;
56183;SDS011;42086;53.170;6.980;2022-08-14T09:10:54;9.73;;;8.73;;
56183;SDS011;42086;53.170;6.980;2022-08-14T09:13:21;10.63;;;9.07;;
56183;SDS011;42086;53.170;6.980;2022-08-14T09:15:51;9.88;;;8.88;;
56183;SDS011;42086;53.170;6.980;2022-08-14T09:18:19;9.98;;;8.98;;
56183;SDS011;42086;53.170;6.980;2022-08-14T09:20:47;9.20;;;8.30;;
56183;SDS011;42086;53.170;6.980;2022-08-14T09:23:17;10.57;;;8.70;;
56183;SDS011;42086;53.170;6.980;2022-08-14T09:25:45;9.20;;;8.27;;
56183;SDS011;42086;53.170;6.980;2022-08-14T09:28:14;9.43;;;8.63;;
56183;SDS011;42086;53.170;6.980;2022-08-14T09:30:43;9.10;;;8.23;;
56183;SDS011;42086;53.170;6.980;2022-08-14T09:44:37;9.48;;;8.40;;
56183;SDS011;42086;53.170;6.980;2022-08-14T09:47:16;9.55;;;8.63;;
56183;SDS011;42086;53.170;6.980;2022-08-14T09:49:43;9.18;;;8.27;;
56183;SDS011;42086;53.170;6.980;2022-08-14T09:52:10;9.75;;;8.80;;
56183;SDS011;42086;53.170;6.980;2022-08-14T09:54:43;10.00;;;8.60;;
56183;SDS011;42086;53.170;6.980;2022-08-14T09:57:24;9.07;;;8.18;;
56183;SDS011;42086;53.170;6.980;2022-08-14T09:59:52;9.10;;;8.30;;
56183;SDS011;42086;53.170;6.980;2022-08-14T10:02:23;10.15;;;8.05;;
56183;SDS011;42086;53.170;6.980;2022-08-14T10:05:00;7.38;;;6.68;;
56183;SDS011;42086;53.170;6.980;2022-08-14T10:07:31;8.25;;;7.45;;
56183;SDS011;42086;53.170;6.980;2022-08-14T10:13:00;8.40;;;7.60;;
56183;SDS011;42086;53.170;6.980;2022-08-14T10:15:29;8.32;;;7.55;;
56183;SDS011;42086;53.170;6.980;2022-08-14T10:18:10;8.00;;;7.20;;
56183;SDS011;42086;53.170;6.980;2022-08-14T10:20:41;7.95;;;7.05;;
56183;SDS011;42086;53.170;6.980;2022-08-14T10:23:16;7.85;;;7.15;;
56183;SDS011;42086;53.170;6.980;2022-08-14T10:25:51;8.00;;;7.00;;
56183;SDS011;42086;53.170;6.980;2022-08-14T10:28:21;8.23;;;7.43;;
56183;SDS011;42086;53.170;6.980;2022-08-14T10:30:48;7.80;;;7.07;;
56183;SDS011;42086;53.170;6.980;2022-08-14T10:35:54;8.05;;;7.00;;
56183;SDS011;42086;53.170;6.980;2022-08-14T10:38:27;8.52;;;6.90;;
56183;SDS011;42086;53.170;6.980;2022-08-14T10:41:08;7.85;;;7.15;;
56183;SDS011;42086;53.170;6.980;2022-08-14T10:43:39;7.68;;;6.88;;
56183;SDS011;42086;53.170;6.980;2022-08-14T10:46:13;7.97;;;7.18;;
56183;SDS011;42086;53.170;6.980;2022-08-14T10:48:58;8.38;;;7.53;;
56183;SDS011;42086;53.170;6.980;2022-08-14T10:51:27;8.05;;;7.40;;
56183;SDS011;42086;53.170;6.980;2022-08-14T10:53:55;8.38;;;7.45;;
56183;SDS011;42086;53.170;6.980;2022-08-14T10:56:29;8.00;;;7.20;;
56183;SDS011;42086;53.170;6.980;2022-08-14T10:59:05;7.90;;;7.10;;
56183;SDS011;42086;53.170;6.980;2022-08-14T11:01:33;7.80;;;7.00;;
56183;SDS011;42086;53.170;6.980;2022-08-14T11:04:01;9.20;;;7.13;;
56183;SDS011;42086;53.170;6.980;2022-08-14T11:06:28;8.27;;;7.43;;
56183;SDS011;42086;53.170;6.980;2022-08-14T11:08:57;7.80;;;7.00;;
56183;SDS011;42086;53.170;6.980;2022-08-14T11:11:23;7.57;;;6.88;;
56183;SDS011;42086;53.170;6.980;2022-08-14T11:13:56;7.35;;;6.75;;
56183;SDS011;42086;53.170;6.980;2022-08-14T11:16:22;8.13;;;7.25;;
56183;SDS011;42086;53.170;6.980;2022-08-14T11:18:51;10.13;;;7.28;;
56183;SDS011;42086;53.170;6.980;2022-08-14T11:21:18;7.43;;;6.80;;
56183;SDS011;42086;53.170;6.980;2022-08-14T11:23:46;8.07;;;7.05;;
56183;SDS011;42086;53.170;6.980;2022-08-14T11:26:17;8.65;;;7.05;;
56183;SDS011;42086;53.170;6.980;2022-08-14T11:28:44;7.70;;;6.90;;
56183;SDS011;42086;53.170;6.980;2022-08-14T11:31:18;7.65;;;6.97;;
56183;SDS011;42086;53.170;6.980;2022-08-14T11:33:52;7.55;;;6.95;;
56183;SDS011;42086;53.170;6.980;2022-08-14T11:36:23;8.00;;;7.20;;
56183;SDS011;42086;53.170;6.980;2022-08-14T11:38:52;8.20;;;7.40;;
56183;SDS011;42086;53.170;6.980;2022-08-14T11:41:19;8.10;;;7.28;;
56183;SDS011;42086;53.170;6.980;2022-08-14T11:43:46;8.02;;;7.25;;
56183;SDS011;42086;53.170;6.980;2022-08-14T11:46:13;7.75;;;6.95;;
56183;SDS011;42086;53.170;6.980;2022-08-14T11:48:50;8.02;;;7.32;;
56183;SDS011;42086;53.170;6.980;2022-08-14T11:51:22;7.80;;;6.85;;
56183;SDS011;42086;53.170;6.980;2022-08-14T11:54:03;9.10;;;7.18;;
56183;SDS011;42086;53.170;6.980;2022-08-14T11:56:36;8.05;;;7.05;;
56183;SDS011;42086;53.170;6.980;2022-08-14T11:59:06;8.55;;;7.50;;
56183;SDS011;42086;53.170;6.980;2022-08-14T12:01:33;8.00;;;7.20;;
56183;SDS011;42086;53.170;6.980;2022-08-14T12:04:10;8.10;;;7.20;;
56183;SDS011;42086;53.170;6.980;2022-08-14T12:06:50;8.73;;;7.90;;
56183;SDS011;42086;53.170;6.980;2022-08-14T12:09:33;8.38;;;7.10;;
56183;SDS011;42086;53.170;6.980;2022-08-14T12:12:14;8.50;;;7.45;;
56183;SDS011;42086;53.170;6.980;2022-08-14T12:17:28;8.50;;;7.68;;
56183;SDS011;42086;53.170;6.980;2022-08-14T12:20:00;7.03;;;6.38;;
56183;SDS011;42086;53.170;6.980;2022-08-14T12:25:04;8.48;;;7.35;;
56183;SDS011;42086;53.170;6.980;2022-08-14T12:27:38;10.10;;;7.72;;
56183;SDS011;42086;53.170;6.980;2022-08-14T12:30:13;8.50;;;7.60;;
56183;SDS011;42086;53.170;6.980;2022-08-14T12:32:54;8.25;;;7.15;;
56183;SDS011;42086;53.170;6.980;2022-08-14T12:35:23;8.73;;;7.90;;
56183;SDS011;42086;53.170;6.980;2022-08-14T12:38:04;8.63;;;7.82;;
56183;SDS011;42086;53.170;6.980;2022-08-14T12:40:30;8.35;;;7.55;;
56183;SDS011;42086;53.170;6.980;2022-08-14T12:43:00;9.63;;;7.40;;
56183;SDS011;42086;53.170;6.980;2022-08-14T12:45:30;8.50;;;7.60;;
56183;SDS011;42086;53.170;6.980;2022-08-14T12:48:02;8.20;;;7.43;;
56183;SDS011;42086;53.170;6.980;2022-08-14T12:50:36;8.35;;;7.63;;
56183;SDS011;42086;53.170;6.980;2022-08-14T12:53:03;9.15;;;7.38;;
56183;SDS011;42086;53.170;6.980;2022-08-14T12:55:29;8.00;;;7.30;;
56183;SDS011;42086;53.170;6.980;2022-08-14T12:57:59;8.15;;;7.45;;
56183;SDS011;42086;53.170;6.980;2022-08-14T13:00:29;8.35;;;7.50;;
56183;SDS011;42086;53.170;6.980;2022-08-14T13:02:56;8.32;;;7.63;;
56183;SDS011;42086;53.170;6.980;2022-08-14T13:05:24;9.07;;;7.50;;
56183;SDS011;42086;53.170;6.980;2022-08-14T13:07:54;8.07;;;7.28;;
56183;SDS011;42086;53.170;6.980;2022-08-14T13:10:22;7.97;;;7.18;;
56183;SDS011;42086;53.170;6.980;2022-08-14T13:12:49;8.45;;;7.75;;
56183;SDS011;42086;53.170;6.980;2022-08-14T13:15:16;7.93;;;7.22;;
56183;SDS011;42086;53.170;6.980;2022-08-14T13:17:44;9.73;;;7.38;;
56183;SDS011;42086;53.170;6.980;2022-08-14T13:20:15;7.88;;;7.07;;
56183;SDS011;42086;53.170;6.980;2022-08-14T13:22:44;7.80;;;7.10;;
56183;SDS011;42086;53.170;6.980;2022-08-14T13:25:14;7.82;;;7.13;;
56183;SDS011;42086;53.170;6.980;2022-08-14T13:27:45;8.23;;;7.43;;
56183;SDS011;42086;53.170;6.980;2022-08-14T13:30:14;8.20;;;7.50;;
56183;SDS011;42086;53.170;6.980;2022-08-14T13:32:42;8.13;;;7.33;;
56183;SDS011;42086;53.170;6.980;2022-08-14T13:35:09;7.50;;;6.90;;
56183;SDS011;42086;53.170;6.980;2022-08-14T13:37:36;9.05;;;6.97;;
56183;SDS011;42086;53.170;6.980;2022-08-14T13:40:04;8.25;;;7.45;;
56183;SDS011;42086;53.170;6.980;2022-08-14T13:42:31;7.50;;;6.90;;
56183;SDS011;42086;53.170;6.980;2022-08-14T13:44:58;7.97;;;7.35;;
56183;SDS011;42086;53.170;6.980;2022-08-14T13:47:26;7.40;;;6.78;;
56183;SDS011;42086;53.170;6.980;2022-08-14T13:49:54;8.32;;;7.20;;
56183;SDS011;42086;53.170;6.980;2022-08-14T13:52:28;7.28;;;6.68;;
56183;SDS011;42086;53.170;6.980;2022-08-14T13:55:00;8.90;;;6.82;;
56183;SDS011;42086;53.170;6.980;2022-08-14T13:57:30;7.88;;;7.25;;
56183;SDS011;42086;53.170;6.980;2022-08-14T14:00:02;7.95;;;7.20;;
56183;SDS011;42086;53.170;6.980;2022-08-14T14:02:36;7.90;;;7.18;;
56183;SDS011;42086;53.170;6.980;2022-08-14T14:05:04;7.85;;;7.15;;
56183;SDS011;42086;53.170;6.980;2022-08-14T14:07:31;7.97;;;7.28;;
56183;SDS011;42086;53.170;6.980;2022-08-14T14:10:08;8.18;;;7.38;;
56183;SDS011;42086;53.170;6.980;2022-08-14T14:12:35;7.70;;;7.03;;
56183;SDS011;42086;53.170;6.980;2022-08-14T14:15:09;11.85;;;7.32;;
56183;SDS011;42086;53.170;6.980;2022-08-14T14:17:38;8.38;;;7.40;;
56183;SDS011;42086;53.170;6.980;2022-08-14T14:20:06;7.82;;;7.13;;
56183;SDS011;42086;53.170;6.980;2022-08-14T14:22:38;8.15;;;7.05;;
56183;SDS011;42086;53.170;6.980;2022-08-14T14:25:07;7.80;;;6.93;;
56183;SDS011;42086;53.170;6.980;2022-08-14T14:27:34;7.57;;;6.97;;
56183;SDS011;42086;53.170;6.980;2022-08-14T14:30:03;7.72;;;7.03;;
56183;SDS011;42086;53.170;6.980;2022-08-14T14:32:30;9.13;;;7.13;;
56183;SDS011;42086;53.170;6.980;2022-08-14T14:35:01;7.60;;;6.85;;
56183;SDS011;42086;53.170;6.980;2022-08-14T14:37:28;7.68;;;6.90;;
56183;SDS011;42086;53.170;6.980;2022-08-14T14:39:55;8.52;;;7.68;;
56183;SDS011;42086;53.170;6.980;2022-08-14T14:42:25;8.43;;;7.72;;
56183;SDS011;42086;53.170;6.980;2022-08-14T14:44:55;8.90;;;8.00;;
56183;SDS011;42086;53.170;6.980;2022-08-14T14:47:52;7.72;;;7.03;;
56183;SDS011;42086;53.170;6.980;2022-08-14T14:50:20;8.48;;;7.68;;
56183;SDS011;42086;53.170;6.980;2022-08-14T14:52:47;9.02;;;7.63;;
56183;SDS011;42086;53.170;6.980;2022-08-14T14:55:14;8.93;;;7.18;;
56183;SDS011;42086;53.170;6.980;2022-08-14T14:57:42;8.63;;;7.25;;
56183;SDS011;42086;53.170;6.980;2022-08-14T15:00:10;8.70;;;7.55;;
56183;SDS011;42086;53.170;6.980;2022-08-14T15:02:40;7.85;;;7.07;;
56183;SDS011;42086;53.170;6.980;2022-08-14T15:05:11;7.70;;;7.00;;
56183;SDS011;42086;53.170;6.980;2022-08-14T15:07:40;8.32;;;7.53;;
56183;SDS011;42086;53.170;6.980;2022-08-14T15:10:07;8.13;;;7.43;;
56183;SDS011;42086;53.170;6.980;2022-08-14T15:15:02;8.60;;;7.80;;
56183;SDS011;42086;53.170;6.980;2022-08-14T15:17:30;8.15;;;7.30;;
56183;SDS011;42086;53.170;6.980;2022-08-14T15:20:00;7.65;;;6.93;;
56183;SDS011;42086;53.170;6.980;2022-08-14T15:22:30;8.13;;;6.93;;